Time;durP1;ratioP1;P1;durP2;ratioP2;P2;SDS_P1;SDS_P2;PMS_P1;PMS_P2;Temp;Humidity;BMP_temperature;BMP_pressure;BME280_temperature;BME280_humidity;BME280_pressure;Samples;Min_cycle;Max_cycle;Signal;HPM_P1;HPM_P2
2023/05/16 00:00:15;;;;;;;;;2.00;2.00;;;;;14.15;73.03;100716.97;5079384;28;45314;-71
2023/05/16 00:02:41;;;;;;;;;2.00;2.00;;;;;14.18;73.69;100719.63;5077784;28;45508;-71
2023/05/16 00:05:07;;;;;;;;;2.67;2.67;;;;;14.26;73.60;100739.91;5077998;28;45471;-71
2023/05/16 00:07:33;;;;;;;;;3.67;2.33;;;;;14.19;74.23;100719.66;5078905;28;45363;-71
2023/05/16 00:09:59;;;;;;;;;3.00;2.00;;;;;14.29;73.74;100736.47;5078903;28;45562;-72
2023/05/16 00:12:25;;;;;;;;;3.00;2.00;;;;;14.33;73.62;100743.56;5078796;28;45400;-70
2023/05/16 00:14:51;;;;;;;;;2.00;2.00;;;;;14.30;73.92;100735.59;5079243;28;45591;-71
2023/05/16 00:17:19;;;;;;;;;2.00;2.00;;;;;14.21;74.47;100717.94;5079504;28;45480;-72
2023/05/16 00:19:47;;;;;;;;;4.00;3.00;;;;;14.30;74.12;100727.72;5079173;28;45557;-71
2023/05/16 00:22:14;;;;;;;;;2.00;2.00;;;;;14.28;74.43;100719.84;5078438;28;45442;-70
2023/05/16 00:24:40;;;;;;;;;3.33;2.33;;;;;14.38;74.70;100727.84;5078920;27;45362;-71
2023/05/16 00:27:06;;;;;;;;;2.33;2.33;;;;;14.34;74.65;100721.66;5078944;28;45238;-70
2023/05/16 00:29:31;;;;;;;;;2.33;2.00;;;;;14.32;74.08;100705.88;5078580;27;46191;-71
2023/05/16 00:31:57;;;;;;;;;2.00;2.00;;;;;14.33;74.51;100718.16;5078812;28;45258;-72
2023/05/16 00:34:22;;;;;;;;;2.33;2.33;;;;;14.33;74.38;100705.00;5077270;28;45523;-72
2023/05/16 00:36:51;;;;;;;;;3.00;3.00;;;;;14.33;74.81;100710.28;5079009;28;45413;-71
2023/05/16 00:39:17;;;;;;;;;3.67;2.67;;;;;14.42;74.81;100719.16;5074198;28;45375;-70
2023/05/16 00:41:43;;;;;;;;;2.00;1.00;;;;;14.33;74.88;100699.75;5074219;28;45409;-71
2023/05/16 00:44:08;;;;;;;;;2.00;2.00;;;;;14.27;75.06;100676.00;5078222;28;45370;-72
2023/05/16 00:46:34;;;;;;;;;4.33;3.00;;;;;14.41;74.75;100685.88;5077695;28;45314;-71
2023/05/16 00:49:00;;;;;;;;;4.00;2.00;;;;;14.46;74.98;100685.09;5078424;28;45428;-72
2023/05/16 00:51:26;;;;;;;;;2.67;2.00;;;;;14.41;76.00;100680.63;5078270;28;45303;-71
2023/05/16 00:53:53;;;;;;;;;1.00;1.00;;;;;14.27;75.21;100656.72;5077993;28;45573;-71
2023/05/16 00:56:20;;;;;;;;;3.00;3.00;;;;;14.31;75.58;100669.94;5077180;27;45424;-70
2023/05/16 00:58:45;;;;;;;;;2.00;2.00;;;;;14.38;74.94;100681.44;5078388;28;45491;-71
2023/05/16 01:01:11;;;;;;;;;3.00;1.00;;;;;14.34;75.32;100682.25;5078466;28;47254;-70
2023/05/16 01:03:38;;;;;;;;;2.67;2.00;;;;;14.28;75.35;100669.91;5077838;28;45417;-70
2023/05/16 01:06:03;;;;;;;;;2.67;2.00;;;;;14.38;74.46;100685.81;5078438;28;45475;-70
2023/05/16 01:08:29;;;;;;;;;2.00;2.00;;;;;14.33;74.74;100696.25;5078156;28;45480;-70
2023/05/16 01:11:18;;;;;;;;;2.00;2.00;;;;;14.38;75.54;100715.59;5077673;28;45332;-70
2023/05/16 01:14:04;;;;;;;;;2.00;2.00;;;;;14.17;75.74;100704.72;5077740;28;45500;-70
2023/05/16 01:16:38;;;;;;;;;3.00;3.00;;;;;14.20;76.69;100718.78;5077888;28;45383;-70
2023/05/16 01:19:24;;;;;;;;;3.00;3.00;;;;;14.08;77.59;100711.56;5077616;28;46192;-72
2023/05/16 01:22:04;;;;;;;;;3.00;3.00;;;;;14.04;76.85;100709.75;5077837;28;45396;-70
2023/05/16 01:24:43;;;;;;;;;1.67;1.67;;;;;14.00;76.76;100686.91;5076976;28;45340;-71
2023/05/16 01:27:10;;;;;;;;;2.33;2.00;;;;;13.92;76.23;100691.13;5076583;28;45574;-70
2023/05/16 01:29:36;;;;;;;;;2.00;2.00;;;;;13.95;75.93;100690.28;5077564;28;46194;-70
2023/05/16 01:32:02;;;;;;;;;3.00;2.00;;;;;13.89;76.42;100683.22;5077853;28;45498;-70
2023/05/16 01:34:28;;;;;;;;;2.00;2.00;;;;;13.97;76.92;100686.88;5077724;27;45947;-71
2023/05/16 01:36:59;;;;;;;;;2.00;2.00;;;;;14.02;76.54;100694.81;5077260;28;45630;-70
2023/05/16 01:39:41;;;;;;;;;2.00;2.00;;;;;14.00;76.82;100686.91;5077331;28;45613;-70
2023/05/16 01:42:13;;;;;;;;;3.00;2.67;;;;;13.81;76.56;100650.69;5077344;28;45345;-70
2023/05/16 01:44:49;;;;;;;;;1.67;1.67;;;;;13.91;77.17;100669.25;5074989;28;45724;-70
2023/05/16 01:47:17;;;;;;;;;2.33;2.33;;;;;13.89;77.64;100673.59;5077513;28;45336;-70
2023/05/16 01:50:13;;;;;;;;;2.00;2.00;;;;;13.97;77.44;100681.63;5064967;28;47568;-70
2023/05/16 01:52:57;;;;;;;;;3.00;2.00;;;;;13.88;77.87;100663.03;5058964;28;45554;-70
2023/05/16 01:55:41;;;;;;;;;2.67;2.00;;;;;13.97;78.03;100680.72;5077235;28;47240;-70
2023/05/16 01:58:09;;;;;;;;;2.00;2.00;;;;;13.85;78.07;100661.25;5077223;27;45266;-70
2023/05/16 02:00:34;;;;;;;;;3.00;2.00;;;;;13.90;78.44;100669.22;5077057;28;45526;-70
2023/05/16 02:03:00;;;;;;;;;2.00;2.00;;;;;13.88;78.06;100665.66;5075563;28;45536;-70
2023/05/16 02:05:25;;;;;;;;;2.00;1.33;;;;;13.94;78.17;100673.66;5076368;27;45433;-71
2023/05/16 02:07:52;;;;;;;;;3.00;3.00;;;;;14.00;77.33;100686.03;5077633;28;45565;-71
2023/05/16 02:10:18;;;;;;;;;3.00;3.00;;;;;13.83;78.08;100668.22;5077101;28;46588;-70
2023/05/16 02:12:44;;;;;;;;;3.00;3.00;;;;;13.91;78.42;100681.50;5075513;28;45434;-70
2023/05/16 02:15:09;;;;;;;;;1.00;1.00;;;;;13.72;77.42;100661.88;5077489;28;45425;-70
2023/05/16 02:17:35;;;;;;;;;4.33;3.00;;;;;13.83;76.85;100688.34;5077327;28;45210;-71
2023/05/16 02:20:05;;;;;;;;;2.00;2.00;;;;;13.63;76.33;100638.97;5077221;28;46420;-71
2023/05/16 02:22:32;;;;;;;;;2.00;1.67;;;;;13.82;76.68;100670.81;5075783;28;45331;-71
2023/05/16 02:25:00;;;;;;;;;4.67;3.33;;;;;13.86;76.37;100670.88;5077271;28;45441;-71
2023/05/16 02:27:25;;;;;;;;;2.00;2.00;;;;;13.79;76.51;100657.66;5075995;28;45685;-71
2023/05/16 02:29:51;;;;;;;;;2.67;2.00;;;;;13.63;76.06;100641.59;5071675;28;45535;-71
2023/05/16 02:32:16;;;;;;;;;3.00;2.00;;;;;13.68;75.94;100642.56;5065510;28;46012;-71
2023/05/16 02:34:42;;;;;;;;;3.00;2.00;;;;;13.72;75.42;100654.00;5077004;28;45876;-71
2023/05/16 02:37:07;;;;;;;;;2.33;2.00;;;;;13.81;75.19;100662.06;5076881;28;45172;-70
2023/05/16 02:39:34;;;;;;;;;2.00;2.00;;;;;13.83;76.04;100668.22;5071618;28;45557;-70
2023/05/16 02:42:00;;;;;;;;;2.67;2.00;;;;;13.89;76.40;100667.47;5074757;28;45552;-70
2023/05/16 02:44:25;;;;;;;;;0.33;0.00;;;;;13.83;75.76;100654.22;5077483;28;45400;-70
2023/05/16 02:46:51;;;;;;;;;3.33;2.33;;;;;13.80;75.62;100651.53;5076176;28;45492;-70
2023/05/16 02:49:16;;;;;;;;;2.00;2.00;;;;;13.76;76.06;100634.81;5074824;28;46607;-70
2023/05/16 02:51:42;;;;;;;;;3.00;2.00;;;;;13.86;76.76;100654.25;5075654;28;45582;-70
2023/05/16 02:54:08;;;;;;;;;3.00;2.00;;;;;13.78;76.11;100638.34;5075860;28;45818;-70
2023/05/16 02:56:35;;;;;;;;;2.00;1.00;;;;;13.87;76.17;100658.66;5076493;28;45463;-70
2023/05/16 02:59:00;;;;;;;;;3.00;2.00;;;;;13.84;75.77;100642.84;5076091;28;46027;-70
2023/05/16 03:01:26;;;;;;;;;2.00;2.00;;;;;13.90;76.25;100648.19;5076136;28;45474;-70
2023/05/16 03:03:51;;;;;;;;;1.33;1.00;;;;;13.97;76.40;100655.34;5075287;28;45504;-70
2023/05/16 03:06:17;;;;;;;;;2.00;2.00;;;;;13.99;76.43;100656.25;5075800;27;45341;-70
2023/05/16 03:08:43;;;;;;;;;2.00;2.00;;;;;13.91;76.60;100637.72;5074729;28;46919;-70
2023/05/16 03:11:08;;;;;;;;;2.00;2.00;;;;;13.88;76.56;100635.03;5076255;28;45394;-70
2023/05/16 03:13:34;;;;;;;;;1.67;1.67;;;;;13.89;76.96;100626.31;5076137;28;45550;-70
2023/05/16 03:15:59;;;;;;;;;2.00;2.00;;;;;14.02;76.09;100643.16;5078364;28;45777;-70
2023/05/16 03:18:25;;;;;;;;;2.33;2.00;;;;;13.83;76.29;100615.72;5077945;28;47023;-70
2023/05/16 03:20:53;;;;;;;;;3.00;3.00;;;;;13.82;76.49;100603.41;5078345;28;45478;-70
2023/05/16 03:23:22;;;;;;;;;3.00;3.00;;;;;13.90;76.32;100614.06;5079789;27;45515;-70
2023/05/16 03:25:48;;;;;;;;;2.00;1.00;;;;;13.98;75.96;100615.06;5078606;28;45173;-70
2023/05/16 03:28:14;;;;;;;;;3.00;3.00;;;;;13.88;76.18;100597.41;5079077;28;46268;-69
2023/05/16 03:30:40;;;;;;;;;4.00;2.00;;;;;13.82;75.98;100595.53;5079684;27;45375;-70
2023/05/16 03:33:06;;;;;;;;;2.00;2.00;;;;;13.94;76.56;100618.50;5079528;27;45542;-70
2023/05/16 03:35:33;;;;;;;;;3.00;2.00;;;;;13.99;76.77;100630.00;5079558;28;45441;-70
2023/05/16 03:37:59;;;;;;;;;2.33;2.33;;;;;13.89;77.23;100614.94;5079755;28;46445;-70
2023/05/16 03:40:24;;;;;;;;;2.00;2.00;;;;;13.90;77.17;100611.44;5079295;28;45369;-70
2023/05/16 03:42:50;;;;;;;;;3.00;3.00;;;;;13.82;77.41;100610.41;5077618;28;45518;-70
2023/05/16 03:45:15;;;;;;;;;4.00;3.00;;;;;13.83;76.99;100609.59;5079120;28;45556;-70
2023/05/16 03:47:41;;;;;;;;;2.00;2.00;;;;;13.89;76.96;100618.44;5070920;28;46817;-70
2023/05/16 03:50:08;;;;;;;;;3.00;3.00;;;;;13.85;76.99;100621.88;5070258;28;45476;-70
2023/05/16 03:52:34;;;;;;;;;2.33;2.00;;;;;13.06;77.17;100498.78;5079725;28;45400;-70
2023/05/16 03:55:01;;;;;;;;;3.00;3.00;;;;;13.82;76.79;100611.28;5079438;28;45401;-70
2023/05/16 03:57:26;;;;;;;;;4.00;3.00;;;;;13.84;77.07;100613.97;5070939;28;46458;-70
2023/05/16 03:59:52;;;;;;;;;3.00;3.00;;;;;13.68;78.13;100604.91;5071133;28;45349;-70
2023/05/16 04:02:17;;;;;;;;;5.00;5.00;;;;;13.83;77.86;100643.72;5079438;28;45504;-71
2023/05/16 04:04:43;;;;;;;;;2.00;2.00;;;;;13.63;77.21;100603.97;5077697;28;45430;-70
2023/05/16 04:07:08;;;;;;;;;4.67;4.00;;;;;13.62;77.76;100620.56;5074420;27;45427;-70
2023/05/16 04:09:34;;;;;;;;;4.00;4.00;;;;;13.69;78.09;100623.34;5070946;28;45382;-70
2023/05/16 04:12:02;;;;;;;;;5.00;4.00;;;;;13.63;77.96;100624.97;5079441;27;45488;-70
2023/05/16 04:14:27;;;;;;;;;3.00;3.00;;;;;13.64;77.86;100618.84;5079063;28;45268;-71
2023/05/16 04:16:53;;;;;;;;;4.00;3.33;;;;;13.72;78.10;100625.13;5078859;28;45492;-70
2023/05/16 04:19:18;;;;;;;;;4.33;3.00;;;;;13.59;78.22;100600.41;5078796;28;45558;-71
2023/05/16 04:21:44;;;;;;;;;5.00;5.00;;;;;13.53;78.29;100587.16;5077666;28;45595;-70
2023/05/16 04:24:09;;;;;;;;;4.00;4.00;;;;;13.57;77.83;100602.13;5078699;28;45255;-71
2023/05/16 04:26:36;;;;;;;;;4.00;4.00;;;;;13.36;77.92;100575.47;5077158;28;47510;-71
2023/05/16 04:29:02;;;;;;;;;4.33;4.00;;;;;13.59;78.40;100624.03;5078951;28;45362;-70
2023/05/16 04:31:28;;;;;;;;;5.00;4.00;;;;;13.59;79.30;100615.25;5079036;27;45319;-70
2023/05/16 04:33:53;;;;;;;;;4.00;4.00;;;;;13.56;79.38;100609.94;5072815;28;45296;-70
2023/05/16 04:36:20;;;;;;;;;4.33;4.33;;;;;13.62;79.37;100621.44;5056550;28;46368;-70
2023/05/16 04:38:46;;;;;;;;;4.00;4.00;;;;;13.64;79.42;100618.84;5057855;28;45229;-70
2023/05/16 04:41:12;;;;;;;;;5.00;4.33;;;;;13.79;79.54;100634.00;5057869;28;45399;-70
2023/05/16 04:43:37;;;;;;;;;6.00;4.33;;;;;13.79;79.32;100626.13;5057277;28;45478;-70
2023/05/16 04:46:03;;;;;;;;;5.00;5.00;;;;;13.71;79.29;100615.50;5058514;28;45394;-71
2023/05/16 04:48:29;;;;;;;;;4.00;4.00;;;;;13.78;79.25;100616.47;5039732;28;45429;-71
2023/05/16 04:50:56;;;;;;;;;5.00;5.00;;;;;13.07;79.58;100503.19;5058074;28;45484;-71
2023/05/16 04:53:21;;;;;;;;;4.67;4.67;;;;;13.80;79.22;100620.00;5039671;28;45550;-71
2023/05/16 04:55:47;;;;;;;;;5.00;5.00;;;;;13.61;79.27;100587.28;5039455;28;45620;-71
2023/05/16 04:58:12;;;;;;;;;4.67;4.00;;;;;13.67;78.92;100595.28;5057776;28;45386;-71
2023/05/16 05:00:38;;;;;;;;;6.00;5.67;;;;;13.86;78.37;100615.75;5056543;28;45431;-71
2023/05/16 05:03:04;;;;;;;;;4.00;4.00;;;;;13.96;78.18;100627.31;5040287;28;45473;-71
2023/05/16 05:05:30;;;;;;;;;5.00;4.00;;;;;13.93;78.30;100628.13;5057548;28;45639;-71
2023/05/16 05:07:57;;;;;;;;;4.00;4.00;;;;;13.97;78.86;100636.97;5057327;28;45560;-71
2023/05/16 05:10:22;;;;;;;;;3.00;2.00;;;;;13.95;78.86;100635.13;5057775;28;45360;-71
2023/05/16 05:12:48;;;;;;;;;6.00;5.00;;;;;13.91;79.50;100631.59;5056351;28;45633;-71
2023/05/16 05:15:13;;;;;;;;;6.00;4.00;;;;;13.96;79.40;100635.19;5056841;28;46518;-72
2023/05/16 05:17:39;;;;;;;;;3.67;3.67;;;;;13.93;79.20;100627.25;5057552;28;45506;-71
2023/05/16 05:20:05;;;;;;;;;4.00;3.00;;;;;14.07;79.39;100652.03;5058194;28;45335;-71
2023/05/16 05:22:31;;;;;;;;;6.67;6.00;;;;;14.04;79.25;100643.19;5057577;28;45749;-71
2023/05/16 05:24:57;;;;;;;;;5.33;5.33;;;;;14.03;79.17;100636.19;5038407;28;48030;-71
2023/05/16 05:27:22;;;;;;;;;5.00;4.00;;;;;14.24;79.16;100654.03;5039328;28;45386;-72
2023/05/16 05:29:48;;;;;;;;;6.00;5.67;;;;;14.14;78.59;100637.22;5058300;28;45585;-71
2023/05/16 05:32:13;;;;;;;;;5.00;4.33;;;;;14.25;79.18;100658.44;5037818;28;45617;-70
2023/05/16 05:34:39;;;;;;;;;5.00;5.00;;;;;14.31;78.52;100658.56;5042068;28;46007;-70
2023/05/16 05:37:04;;;;;;;;;5.67;5.00;;;;;14.28;78.89;100647.97;5076794;28;45416;-70
2023/05/16 05:39:30;;;;;;;;;5.00;5.00;;;;;14.31;78.54;100646.28;5075443;27;45290;-70
2023/05/16 05:41:55;;;;;;;;;7.33;6.00;;;;;14.41;78.42;100657.84;5075143;28;45485;-71
2023/05/16 05:44:21;;;;;;;;;8.33;8.00;;;;;14.45;78.48;100666.66;5075935;28;45629;-70
2023/05/16 05:46:47;;;;;;;;;5.33;4.67;;;;;14.51;78.46;100688.66;5077248;28;45485;-69
2023/05/16 05:49:13;;;;;;;;;8.33;8.33;;;;;14.55;78.30;100680.84;5072452;28;45547;-71
2023/05/16 05:51:38;;;;;;;;;7.67;5.67;;;;;14.56;78.11;100672.06;5071853;28;45414;-71
2023/05/16 05:54:04;;;;;;;;;6.33;6.00;;;;;14.49;77.80;100650.06;5076500;28;46370;-72
2023/05/16 05:56:29;;;;;;;;;31.50;30.50;;;;;14.57;77.90;100652.88;5076544;28;45476;-68
2023/05/16 05:58:55;;;;;;;;;66.75;47.75;;;;;14.63;77.68;100668.72;5076862;28;45641;-69
2023/05/16 06:01:21;;;;;;;;;72.50;49.25;;;;;14.71;77.72;100677.63;5076604;28;45372;-68
2023/05/16 06:03:46;;;;;;;;;59.50;46.75;;;;;14.76;77.25;100678.53;5076277;27;45401;-70
2023/05/16 06:06:13;;;;;;;;;27.75;25.00;;;;;14.79;77.25;100670.72;5075670;27;45928;-68
2023/05/16 06:08:39;;;;;;;;;12.00;10.75;;;;;14.82;76.88;100670.78;5076469;28;45270;-70
2023/05/16 06:11:06;;;;;;;;;28.50;26.00;;;;;14.96;76.07;100692.03;5075610;28;45595;-69
2023/05/16 06:13:31;;;;;;;;;52.00;39.25;;;;;14.91;76.44;100676.16;5076386;27;45523;-69
2023/05/16 06:15:57;;;;;;;;;134.33;107.67;;;;;14.88;76.12;100665.59;5075330;27;45450;-70
2023/05/16 06:18:22;;;;;;;;;69.50;49.25;;;;;14.84;75.91;100679.56;5073077;28;45386;-69
2023/05/16 06:20:48;;;;;;;;;43.75;34.50;;;;;14.93;76.22;100704.25;5072374;28;45302;-70
2023/05/16 06:23:13;;;;;;;;;29.75;25.00;;;;;14.82;76.58;100685.66;5075467;28;45588;-70
2023/05/16 06:25:39;;;;;;;;;20.25;17.25;;;;;15.01;77.14;100690.31;5076179;28;45484;-69
2023/05/16 06:28:04;;;;;;;;;9.67;9.00;;;;;15.28;75.88;100700.34;5075292;28;45502;-69
2023/05/16 06:30:30;;;;;;;;;9.67;9.67;;;;;15.27;75.38;100679.28;5075689;27;45493;-69
2023/05/16 06:32:56;;;;;;;;;11.00;10.67;;;;;15.49;75.58;100710.25;5076553;28;46416;-70
2023/05/16 06:35:22;;;;;;;;;10.00;10.00;;;;;15.45;74.53;100691.78;5075349;27;46592;-69
2023/05/16 06:37:47;;;;;;;;;19.25;17.25;;;;;15.55;74.89;100700.66;5075549;28;45565;-70
2023/05/16 06:40:13;;;;;;;;;13.67;10.33;;;;;15.48;74.37;100679.53;5072539;28;45868;-69
2023/05/16 06:42:38;;;;;;;;;22.00;19.00;;;;;15.52;74.10;100686.59;5075520;27;45583;-69
2023/05/16 06:45:04;;;;;;;;;7.67;7.00;;;;;15.34;73.54;100669.69;5075060;27;45578;-70
2023/05/16 06:47:30;;;;;;;;;22.75;19.25;;;;;15.56;74.08;100703.34;5075891;27;45623;-68
2023/05/16 06:49:55;;;;;;;;;10.00;9.67;;;;;15.59;73.50;100705.13;5074318;28;45751;-70
2023/05/16 06:52:21;;;;;;;;;7.33;6.33;;;;;15.66;73.52;100720.13;5079268;28;46339;-70
2023/05/16 06:54:47;;;;;;;;;8.00;7.00;;;;;15.58;73.75;100706.88;5079346;27;45307;-70
2023/05/16 06:57:12;;;;;;;;;10.33;8.67;;;;;15.64;73.93;100720.09;5079216;28;45404;-71
2023/05/16 06:59:38;;;;;;;;;8.00;7.00;;;;;15.64;73.61;100713.97;5077837;28;45659;-70
2023/05/16 07:02:05;;;;;;;;;9.67;8.00;;;;;15.61;73.46;100700.75;5079052;27;45898;-69
2023/05/16 07:04:30;;;;;;;;;9.33;8.00;;;;;15.66;72.75;100715.75;5079134;28;45589;-69
2023/05/16 07:06:56;;;;;;;;;9.00;7.67;;;;;15.63;72.55;100714.81;5079671;27;45509;-69
2023/05/16 07:09:22;;;;;;;;;7.67;6.67;;;;;15.86;72.43;100736.19;5062808;28;45376;-69
2023/05/16 07:11:47;;;;;;;;;7.00;6.33;;;;;15.72;72.07;100714.94;5078615;28;45437;-70
2023/05/16 07:14:13;;;;;;;;;6.33;5.00;;;;;15.99;71.10;100714.38;5078232;27;45734;-70
2023/05/16 07:16:39;;;;;;;;;7.00;7.00;;;;;16.13;70.71;100711.88;5079616;28;45472;-70
2023/05/16 07:19:04;;;;;;;;;7.67;7.00;;;;;16.30;69.95;100712.06;5079522;27;45441;-71
2023/05/16 07:21:30;;;;;;;;;8.00;6.67;;;;;16.18;69.93;100725.13;5078681;27;45458;-70
2023/05/16 07:23:56;;;;;;;;;7.00;6.00;;;;;16.10;69.84;100702.19;5078831;28;45401;-71
2023/05/16 07:26:22;;;;;;;;;8.67;8.00;;;;;16.01;69.98;100699.47;5078043;28;45462;-70
2023/05/16 07:28:51;;;;;;;;;7.00;7.00;;;;;16.21;70.30;100707.56;5079018;28;45512;-70
2023/05/16 07:31:17;;;;;;;;;7.67;7.00;;;;;16.14;69.96;100707.50;5077143;28;46581;-69
2023/05/16 07:33:43;;;;;;;;;6.33;6.33;;;;;15.93;70.84;100729.25;5079076;28;46111;-69
2023/05/16 07:36:10;;;;;;;;;6.33;6.00;;;;;15.82;71.57;100718.59;5079035;28;45603;-69
2023/05/16 07:38:35;;;;;;;;;6.67;6.67;;;;;15.85;71.67;100724.75;5078864;27;45303;-68
2023/05/16 07:41:02;;;;;;;;;7.33;7.00;;;;;15.86;71.67;100734.44;5077363;27;46317;-71
2023/05/16 07:43:28;;;;;;;;;6.67;6.67;;;;;15.88;71.26;100726.56;5075441;28;45459;-70
2023/05/16 07:45:54;;;;;;;;;6.00;5.67;;;;;15.76;71.66;100710.63;5078490;27;45504;-69
2023/05/16 07:48:19;;;;;;;;;9.67;9.00;;;;;15.84;72.08;100730.03;5078332;28;45403;-71
2023/05/16 07:50:45;;;;;;;;;9.00;8.67;;;;;15.67;72.74;100735.94;5075279;27;46165;-71
2023/05/16 07:53:10;;;;;;;;;10.33;9.33;;;;;15.54;72.59;100726.13;5076929;28;45553;-71
2023/05/16 07:55:36;;;;;;;;;9.67;9.00;;;;;15.60;72.68;100736.72;5077960;27;45487;-71
2023/05/16 07:58:02;;;;;;;;;7.67;7.00;;;;;15.84;71.18;100728.28;5077906;28;45603;-71
2023/05/16 08:00:28;;;;;;;;;8.33;6.00;;;;;15.97;69.67;100733.66;5076362;28;46837;-71
2023/05/16 08:02:54;;;;;;;;;5.33;5.33;;;;;15.78;69.77;100725.56;5076883;28;45396;-72
2023/05/16 08:05:20;;;;;;;;;10.00;9.00;;;;;15.79;70.20;100747.53;5076395;27;45428;-72
2023/05/16 08:07:46;;;;;;;;;8.00;7.00;;;;;15.54;71.80;100728.75;5077753;28;45385;-71
2023/05/16 08:10:11;;;;;;;;;7.00;6.00;;;;;15.66;71.78;100730.66;5076260;28;47290;-71
2023/05/16 08:12:37;;;;;;;;;10.00;8.00;;;;;15.79;72.30;100755.41;5074098;28;45385;-78
2023/05/16 08:15:03;;;;;;;;;13.75;12.25;;;;;15.81;72.17;100736.13;5078018;27;45523;-72
2023/05/16 08:17:29;;;;;;;;;8.00;7.67;;;;;15.81;71.14;100720.31;5077898;27;45716;-72
2023/05/16 08:19:55;;;;;;;;;7.33;6.67;;;;;16.15;69.67;100739.13;5082869;27;46405;-72
2023/05/16 08:22:21;;;;;;;;;11.33;8.00;;;;;16.39;67.77;100750.78;5076369;28;45650;-71
2023/05/16 08:24:46;;;;;;;;;7.00;7.00;;;;;16.40;68.13;100737.63;5077817;27;45643;-72
2023/05/16 08:27:12;;;;;;;;;8.00;8.00;;;;;16.64;68.21;100743.97;5078475;28;45440;-71
2023/05/16 08:29:37;;;;;;;;;7.00;6.00;;;;;16.80;67.92;100737.94;5077892;28;46366;-71
2023/05/16 08:32:03;;;;;;;;;5.33;4.67;;;;;17.16;66.59;100757.59;5069567;28;45572;-74
2023/05/16 08:34:32;;;;;;;;;9.00;8.00;;;;;17.02;64.88;100754.84;5066304;28;45493;-70
2023/05/16 08:36:58;;;;;;;;;8.00;7.33;;;;;16.89;65.68;100753.00;5078088;28;45488;-71
2023/05/16 08:39:25;;;;;;;;;7.67;7.33;;;;;16.85;65.67;100746.84;5077116;27;45771;-71
2023/05/16 08:41:50;;;;;;;;;10.67;10.67;;;;;16.80;66.50;100753.78;5077691;28;46052;-70
2023/05/16 08:44:20;;;;;;;;;17.33;15.67;;;;;16.78;66.50;100768.72;5077696;28;45454;-71
2023/05/16 08:46:56;;;;;;;;;11.00;8.00;;;;;16.49;66.67;100758.81;5060164;28;45574;-71
2023/05/16 08:49:22;;;;;;;;;10.00;10.00;;;;;16.57;67.24;100768.53;5069435;28;46081;-71
2023/05/16 08:51:50;;;;;;;;;13.00;11.00;;;;;16.59;66.29;100778.25;5077446;28;45546;-71
2023/05/16 08:54:16;;;;;;;;;11.00;11.00;;;;;16.48;66.11;100767.56;5077536;28;45434;-71
2023/05/16 08:56:43;;;;;;;;;14.67;11.67;;;;;16.48;66.10;100778.13;5076089;28;45642;-72
2023/05/16 08:59:10;;;;;;;;;15.75;12.00;;;;;16.55;66.05;100781.69;5076220;27;46110;-71
2023/05/16 09:01:36;;;;;;;;;12.67;10.33;;;;;16.62;65.69;100785.28;5077106;28;45472;-71
2023/05/16 09:04:05;;;;;;;;;8.33;7.33;;;;;16.70;65.61;100773.06;5075969;28;46064;-70
2023/05/16 09:06:31;;;;;;;;;8.67;8.00;;;;;16.91;65.04;100780.31;5076883;28;45421;-70
2023/05/16 09:08:57;;;;;;;;;7.00;6.00;;;;;16.93;63.81;100786.47;5076787;27;45453;-71
2023/05/16 09:11:22;;;;;;;;;4.00;4.00;;;;;16.99;63.22;100756.59;5076721;28;45491;-71
2023/05/16 09:13:48;;;;;;;;;5.00;4.67;;;;;17.42;63.01;100781.50;5074435;28;45620;-69
2023/05/16 09:16:17;;;;;;;;;5.67;5.67;;;;;17.77;62.28;100794.00;5077002;27;45528;-70
2023/05/16 09:18:46;;;;;;;;;10.00;8.00;;;;;17.76;61.84;100796.66;5076669;27;45658;-70
2023/05/16 09:21:12;;;;;;;;;5.33;5.00;;;;;17.57;60.95;100779.84;5072483;28;45347;-72
2023/05/16 09:23:41;;;;;;;;;3.67;3.67;;;;;17.54;59.97;100801.81;5057706;28;45371;-74
2023/05/16 09:26:07;;;;;;;;;4.67;4.33;;;;;17.54;59.52;100795.66;5057570;28;45335;-72
2023/05/16 09:28:33;;;;;;;;;5.00;5.00;;;;;17.39;58.72;100784.13;5057752;28;46568;-73
2023/05/16 09:31:01;;;;;;;;;4.00;4.00;;;;;17.63;59.13;100801.00;5075096;28;45500;-72
2023/05/16 09:33:28;;;;;;;;;5.67;5.00;;;;;17.99;59.18;100800.31;5075336;28;45365;-71
2023/05/16 09:36:00;;;;;;;;;2.67;2.67;;;;;18.11;59.28;100799.47;5056823;28;45363;-73
2023/05/16 09:38:27;;;;;;;;;4.33;3.33;;;;;18.23;58.57;100795.97;5056206;28;45427;-74
2023/05/16 09:40:54;;;;;;;;;2.67;2.67;;;;;18.12;57.86;100800.34;5056647;28;45434;-73
2023/05/16 09:43:25;;;;;;;;;7.33;6.33;;;;;18.13;58.30;100813.56;5038427;28;45445;-73
2023/05/16 09:45:52;;;;;;;;;8.67;8.67;;;;;18.23;56.37;100812.72;5038500;28;45540;-72
2023/05/16 09:48:18;;;;;;;;;4.00;4.00;;;;;18.43;56.09;100778.38;5056566;28;46824;-74
2023/05/16 09:50:52;;;;;;;;;4.00;3.67;;;;;18.88;55.09;100800.50;5056772;28;45567;-72
2023/05/16 09:53:26;;;;;;;;;5.00;4.33;;;;;19.75;52.51;100805.66;5056740;28;45446;-73
2023/05/16 09:56:14;;;;;;;;;5.00;4.00;;;;;20.27;50.15;100688.69;5056026;28;45371;-72
2023/05/16 09:58:42;;;;;;;;;4.00;4.00;;;;;21.72;47.25;100789.13;5056448;28;45489;-73
2023/05/16 10:01:09;;;;;;;;;2.00;2.00;;;;;21.59;47.34;100801.69;5054735;28;45616;-72
2023/05/16 10:03:37;;;;;;;;;6.67;6.33;;;;;21.29;48.38;100812.59;5056144;28;45489;-74
2023/05/16 10:06:04;;;;;;;;;5.00;4.33;;;;;21.34;49.07;100810.78;5056095;28;45436;-73
2023/05/16 10:08:35;;;;;;;;;6.00;5.00;;;;;21.43;48.90;100808.09;5056095;28;45440;-71
2023/05/16 10:11:02;;;;;;;;;2.00;1.33;;;;;21.21;48.58;100818.88;5040383;28;46034;-73
2023/05/16 10:13:29;;;;;;;;;4.00;3.00;;;;;20.87;46.98;100810.34;5056141;28;45518;-74
2023/05/16 10:15:57;;;;;;;;;4.00;4.00;;;;;20.53;48.29;100814.97;5056780;28;45233;-71
2023/05/16 10:18:34;;;;;;;;;8.00;7.00;;;;;20.18;49.66;100805.47;5037056;28;48119;-71
2023/05/16 10:21:10;;;;;;;;;7.67;4.33;;;;;19.59;49.31;100796.84;5055863;28;45526;-69
2023/05/16 10:23:39;;;;;;;;;9.67;7.00;;;;;19.74;50.13;100809.22;5056022;28;45436;-72
2023/05/16 10:26:06;;;;;;;;;5.00;4.00;;;;;20.09;50.94;100816.13;5037009;28;45648;-71
2023/05/16 10:28:33;;;;;;;;;3.00;3.00;;;;;20.35;49.46;100829.25;5055273;28;46324;-71
2023/05/16 10:31:01;;;;;;;;;3.67;3.00;;;;;20.36;49.42;100792.09;5037657;28;45539;-73
2023/05/16 10:33:27;;;;;;;;;4.00;3.00;;;;;20.72;47.34;100811.34;5040021;28;45503;-72
2023/05/16 10:35:54;;;;;;;;;3.33;3.00;;;;;20.71;46.40;100811.34;5069037;28;45452;-71
2023/05/16 10:38:23;;;;;;;;;1.00;1.00;;;;;20.60;47.08;100820.28;5068469;28;45446;-71
2023/05/16 10:40:50;;;;;;;;;4.67;3.67;;;;;20.57;46.16;100806.09;5075521;28;45496;-71
2023/05/16 10:43:26;;;;;;;;;7.00;4.67;;;;;20.60;46.93;100827.34;5076204;28;46253;-71
2023/05/16 10:45:56;;;;;;;;;4.00;4.00;;;;;20.21;46.34;100831.97;5075653;27;45539;-71
2023/05/16 10:48:33;;;;;;;;;3.00;3.00;;;;;20.31;48.18;100831.03;5076374;28;46126;-71
2023/05/16 10:51:01;;;;;;;;;2.67;2.67;;;;;20.23;47.72;100820.47;5076322;28;46184;-70
2023/05/16 10:53:34;;;;;;;;;4.00;3.00;;;;;20.48;47.55;100838.91;5074232;28;45458;-71
2023/05/16 10:56:00;;;;;;;;;7.00;5.00;;;;;20.12;45.88;100837.34;5076230;27;45431;-71
2023/05/16 10:58:37;;;;;;;;;3.67;2.00;;;;;20.32;46.51;100835.44;5075189;27;45545;-71
2023/05/16 11:01:31;;;;;;;;;3.33;3.00;;;;;20.91;45.47;100829.75;5075809;28;45568;-72
2023/05/16 11:03:59;;;;;;;;;4.33;4.33;;;;;20.54;44.05;100836.19;5073582;28;45706;-74
2023/05/16 11:06:32;;;;;;;;;2.00;2.00;;;;;20.50;44.35;100842.41;5075663;28;45538;-73
2023/05/16 11:09:09;;;;;;;;;8.67;8.33;;;;;20.68;45.40;100836.16;5076093;28;46406;-70
2023/05/16 11:11:46;;;;;;;;;7.67;7.33;;;;;21.12;45.19;100837.56;5075914;28;45291;-72
2023/05/16 11:14:31;;;;;;;;;3.00;2.00;;;;;20.95;43.32;100826.19;5074908;28;45582;-72
2023/05/16 11:17:01;;;;;;;;;2.00;2.00;;;;;20.74;43.59;100843.19;5074504;28;45497;-73
2023/05/16 11:19:31;;;;;;;;;2.67;2.00;;;;;20.22;44.34;100841.69;5075200;28;46125;-71
2023/05/16 11:22:32;;;;;;;;;2.00;1.67;;;;;19.64;46.39;100851.59;5074238;28;45372;-70
2023/05/16 11:25:05;;;;;;;;;4.00;3.00;;;;;20.31;45.46;100846.94;5069947;28;45559;-70